createdAt,value
2023-03-27T00:00:46.327Z,5.07
2023-03-27T00:03:17.120Z,4.94
2023-03-27T00:05:48.100Z,4.83
2023-03-27T00:08:19.640Z,4.91
2023-03-27T00:10:50.972Z,4.93
2023-03-27T00:13:24.970Z,5.06
2023-03-27T00:15:59.847Z,5.06
2023-03-27T00:18:30.186Z,4.86
2023-03-27T00:20:59.277Z,4.89
2023-03-27T00:23:29.333Z,4.84
2023-03-27T00:26:00.764Z,4.78
2023-03-27T00:28:33.431Z,4.75
2023-03-27T00:31:01.000Z,4.56
2023-03-27T00:33:27.798Z,4.62
2023-03-27T00:35:55.752Z,4.58
2023-03-27T00:38:23.704Z,4.51
2023-03-27T00:41:02.860Z,4.32
2023-03-27T00:43:35.428Z,4.44
2023-03-27T00:46:21.489Z,4.48
2023-03-27T00:48:51.479Z,4.45
2023-03-27T00:51:20.223Z,4.39
2023-03-27T00:53:52.854Z,4.36
2023-03-27T00:56:20.124Z,4.18
2023-03-27T00:58:52.641Z,4.00
2023-03-27T01:01:24.602Z,3.94
2023-03-27T01:03:56.177Z,3.55
2023-03-27T01:06:29.259Z,3.99
2023-03-27T01:08:59.251Z,3.56
2023-03-27T01:12:00.423Z,3.62
2023-03-27T01:15:10.722Z,3.70
2023-03-27T01:18:04.904Z,3.65
2023-03-27T01:21:28.080Z,3.59
2023-03-27T01:36:37.559Z,3.14
2023-03-27T01:39:37.913Z,3.07
2023-03-27T01:42:37.434Z,2.99
2023-03-27T01:45:13.943Z,2.77
2023-03-27T01:47:55.553Z,2.88
2023-03-27T01:50:58.759Z,2.50
2023-03-27T01:53:43.952Z,2.13
2023-03-27T01:56:34.154Z,2.40
2023-03-27T01:59:35.972Z,2.70
2023-03-27T02:05:24.230Z,2.65
2023-03-27T02:08:07.684Z,2.46
2023-03-27T02:10:42.021Z,2.12
2023-03-27T02:13:49.074Z,2.63
2023-03-27T02:16:27.416Z,2.63
2023-03-27T02:19:10.095Z,2.21
2023-03-27T02:22:04.300Z,2.68
2023-03-27T02:24:33.187Z,2.67
2023-03-27T02:27:26.973Z,2.40
2023-03-27T02:30:13.697Z,2.00
2023-03-27T02:32:54.673Z,2.59
2023-03-27T02:36:06.589Z,2.26
2023-03-27T02:38:44.096Z,2.44
2023-03-27T02:41:39.550Z,2.51
2023-03-27T02:45:00.163Z,2.47
2023-03-27T02:53:24.585Z,2.49
2023-03-27T02:56:01.181Z,2.45
2023-03-27T02:59:00.570Z,2.37
2023-03-27T03:01:32.860Z,1.94
2023-03-27T03:04:08.153Z,2.25
2023-03-27T03:06:36.170Z,2.23
2023-03-27T03:09:06.813Z,1.88
2023-03-27T03:11:40.777Z,2.27
2023-03-27T03:14:22.371Z,1.93
2023-03-27T03:16:49.487Z,1.70
2023-03-27T03:19:16.805Z,1.93
2023-03-27T03:21:46.784Z,2.00
2023-03-27T03:24:21.499Z,2.10
2023-03-27T03:26:52.246Z,1.82
2023-03-27T03:29:26.330Z,1.71
2023-03-27T03:34:42.430Z,1.72
2023-03-27T03:37:15.991Z,1.89
2023-03-27T03:39:44.512Z,2.14
2023-03-27T03:42:22.744Z,1.98
2023-03-27T03:47:34.409Z,1.45
2023-03-27T03:50:16.492Z,1.80
2023-03-27T03:52:45.880Z,1.69
2023-03-27T03:55:18.676Z,1.83
2023-03-27T03:57:58.604Z,1.63
2023-03-27T04:00:36.512Z,1.84
2023-03-27T04:03:10.289Z,1.71
2023-03-27T04:16:52.371Z,1.92
2023-03-27T04:19:20.784Z,1.81
2023-03-27T04:21:50.368Z,1.99
2023-03-27T04:29:52.293Z,2.02
2023-03-27T04:32:25.143Z,1.94
2023-03-27T04:34:55.879Z,2.05
2023-03-27T04:37:25.707Z,1.33
2023-03-27T04:40:02.925Z,1.96
2023-03-27T04:42:32.339Z,1.38
2023-03-27T04:45:05.015Z,1.65
2023-03-27T04:50:21.614Z,1.55
2023-03-27T04:52:54.217Z,1.77
2023-03-27T04:58:31.623Z,1.97
2023-03-27T05:00:58.865Z,2.01
2023-03-27T05:03:30.324Z,1.99
2023-03-27T05:06:02.739Z,2.00
2023-03-27T05:08:34.869Z,2.00
2023-03-27T05:11:09.359Z,1.88
2023-03-27T05:13:38.901Z,1.96
2023-03-27T05:16:16.044Z,1.89
2023-03-27T05:18:49.306Z,1.67
2023-03-27T05:21:41.198Z,2.01
2023-03-27T05:24:10.348Z,2.02
2023-03-27T05:26:41.676Z,2.10
2023-03-27T05:29:14.605Z,1.96
2023-03-27T05:31:44.298Z,2.03
2023-03-27T05:34:11.917Z,2.12
2023-03-27T05:39:47.328Z,2.06
2023-03-27T05:45:07.703Z,1.84
2023-03-27T05:47:52.070Z,2.07
2023-03-27T05:50:26.976Z,2.11
2023-03-27T05:53:17.428Z,2.10
2023-03-27T05:55:48.058Z,2.06
2023-03-27T05:58:21.195Z,2.13
2023-03-27T06:00:48.712Z,1.59
2023-03-27T06:03:24.486Z,2.11
2023-03-27T06:05:56.316Z,1.88
2023-03-27T06:08:38.756Z,1.95
2023-03-27T06:11:14.253Z,2.23
2023-03-27T06:13:43.683Z,1.97
2023-03-27T06:16:29.344Z,2.06
2023-03-27T06:19:08.028Z,1.96
2023-03-27T06:24:32.891Z,2.21
2023-03-27T06:27:00.606Z,2.32
2023-03-27T06:29:29.949Z,2.43
2023-03-27T06:32:02.732Z,2.07
2023-03-27T06:34:29.837Z,2.37
2023-03-27T06:49:19.901Z,2.78
2023-03-27T06:51:56.689Z,3.13
2023-03-27T06:57:08.032Z,3.42
2023-03-27T06:59:55.169Z,3.52
2023-03-27T07:02:25.608Z,3.80
2023-03-27T07:05:03.718Z,3.98
2023-03-27T07:07:40.312Z,4.15
2023-03-27T07:10:17.087Z,4.16
2023-03-27T07:15:37.511Z,5.08
2023-03-27T07:20:51.629Z,5.74
2023-03-27T07:23:20.146Z,6.09
2023-03-27T07:25:50.454Z,5.81
2023-03-27T07:31:04.000Z,6.64
2023-03-27T07:45:04.649Z,7.09
2023-03-27T07:47:36.464Z,6.96
2023-03-27T07:55:33.657Z,6.73
2023-03-27T07:58:02.714Z,6.42
2023-03-27T08:00:31.931Z,6.58
2023-03-27T08:03:19.089Z,6.67
2023-03-27T08:06:18.324Z,6.38
2023-03-27T08:08:49.728Z,6.54
2023-03-27T08:11:30.395Z,6.23
2023-03-27T08:14:01.355Z,6.15
2023-03-27T08:16:34.659Z,6.40
2023-03-27T08:24:46.582Z,6.82
2023-03-27T08:27:14.532Z,6.77
2023-03-27T08:29:51.126Z,6.85
2023-03-27T08:32:18.662Z,6.10
2023-03-27T08:34:51.037Z,6.80
2023-03-27T08:37:22.075Z,6.53
2023-03-27T08:39:49.615Z,6.83
2023-03-27T08:42:29.624Z,7.17
2023-03-27T08:45:05.538Z,6.89
2023-03-27T08:50:57.171Z,6.54
2023-03-27T08:54:01.537Z,6.71
2023-03-27T08:56:33.751Z,6.42
2023-03-27T08:59:09.270Z,6.13
2023-03-27T09:01:54.389Z,6.18
2023-03-27T09:04:36.388Z,6.17
2023-03-27T09:07:28.598Z,6.30
2023-03-27T09:10:19.969Z,6.05
2023-03-27T09:12:50.099Z,6.37
2023-03-27T09:21:48.383Z,6.43
2023-03-27T09:24:52.758Z,6.44
2023-03-27T09:33:49.831Z,6.56
2023-03-27T09:36:21.235Z,6.28
2023-03-27T09:39:13.421Z,6.77
2023-03-27T09:44:44.463Z,6.98
2023-03-27T09:50:32.979Z,7.00
2023-03-27T09:53:21.692Z,7.40
2023-03-27T09:56:08.289Z,6.88
2023-03-27T09:59:00.737Z,7.00
2023-03-27T10:04:38.409Z,6.99
2023-03-27T10:07:10.298Z,7.09
2023-03-27T10:15:39.884Z,7.48
2023-03-27T10:27:49.185Z,7.26
2023-03-27T10:39:45.230Z,7.89
2023-03-27T10:51:01.388Z,7.28
2023-03-27T10:53:52.597Z,7.32
2023-03-27T10:56:56.598Z,7.82
2023-03-27T10:59:56.896Z,7.88
2023-03-27T11:05:41.011Z,8.34
2023-03-27T11:08:24.012Z,7.88
2023-03-27T11:11:06.441Z,6.96
2023-03-27T11:16:57.476Z,6.48
2023-03-27T11:20:11.638Z,6.64
2023-03-27T11:26:04.633Z,6.81
2023-03-27T11:36:16.220Z,7.47
2023-03-27T11:38:53.130Z,7.80
2023-03-27T11:44:58.106Z,7.84
2023-03-27T11:48:11.486Z,7.43
2023-03-27T11:51:07.834Z,7.61
2023-03-27T11:53:44.253Z,7.54
2023-03-27T11:59:17.304Z,6.69
2023-03-27T12:02:31.075Z,6.06
2023-03-27T12:05:27.523Z,5.58
2023-03-27T12:15:44.834Z,4.10
2023-03-27T12:18:22.756Z,4.01
2023-03-27T12:24:46.911Z,4.59
2023-03-27T12:28:22.712Z,4.57
2023-03-27T12:34:55.619Z,6.01
2023-03-27T12:50:36.166Z,7.29
2023-03-27T12:53:07.513Z,7.80
2023-03-27T12:58:36.595Z,7.43
2023-03-27T13:07:32.221Z,8.05
2023-03-27T13:14:10.618Z,8.36
2023-03-27T13:26:02.720Z,8.70
2023-03-27T13:32:55.045Z,7.98
2023-03-27T13:41:51.132Z,7.85
2023-03-27T13:44:38.588Z,7.68
2023-03-27T13:47:43.152Z,7.72
2023-03-27T13:50:51.475Z,7.67
2023-03-27T13:53:55.997Z,7.52
2023-03-27T13:57:08.065Z,7.65
2023-03-27T14:03:42.371Z,7.98
2023-03-27T14:07:15.440Z,7.73
2023-03-27T14:10:24.803Z,7.21
2023-03-27T14:13:43.668Z,7.63
2023-03-27T14:16:55.971Z,7.58
2023-03-27T14:19:35.295Z,7.85
2023-03-27T14:22:36.375Z,7.78
2023-03-27T14:25:18.778Z,7.95
2023-03-27T14:28:02.662Z,7.91
2023-03-27T14:31:01.081Z,8.00
2023-03-27T14:36:25.387Z,7.44
2023-03-27T14:51:29.316Z,8.12
2023-03-27T15:05:45.568Z,7.26
2023-03-27T15:08:16.966Z,6.89
2023-03-27T15:10:57.896Z,5.71
2023-03-27T15:13:44.957Z,4.99
2023-03-27T15:19:13.094Z,4.95
2023-03-27T15:22:01.347Z,5.09
2023-03-27T15:25:06.544Z,4.87
2023-03-27T15:28:00.743Z,5.13
2023-03-27T15:30:39.254Z,4.45
2023-03-27T15:33:26.941Z,5.14
2023-03-27T15:36:21.182Z,4.87
2023-03-27T15:39:00.763Z,5.04
2023-03-27T15:47:30.819Z,5.24
2023-03-27T15:50:25.553Z,5.79
2023-03-27T15:55:44.627Z,5.98
2023-03-27T15:58:43.519Z,6.12
2023-03-27T16:01:21.143Z,6.07
2023-03-27T16:03:58.541Z,6.43
2023-03-27T16:06:41.106Z,6.15
2023-03-27T16:09:31.312Z,6.63
2023-03-27T16:12:01.706Z,6.25
2023-03-27T16:14:46.858Z,6.54
2023-03-27T16:17:23.055Z,6.75
2023-03-27T16:19:59.862Z,6.80
2023-03-27T16:22:40.743Z,6.79
2023-03-27T16:28:08.972Z,6.30
2023-03-27T16:31:04.377Z,6.39
2023-03-27T16:33:38.927Z,6.65
2023-03-27T16:36:42.008Z,6.50
2023-03-27T16:44:51.327Z,6.10
2023-03-27T16:55:55.426Z,5.42
2023-03-27T16:58:38.740Z,5.77
2023-03-27T17:01:13.298Z,5.96
2023-03-27T17:03:53.750Z,5.66
2023-03-27T17:12:21.367Z,5.86
2023-03-27T17:15:01.661Z,5.85
2023-03-27T17:17:32.567Z,5.18
2023-03-27T17:23:27.147Z,5.73
2023-03-27T17:26:03.825Z,5.72
2023-03-27T17:28:39.136Z,5.66
2023-03-27T17:31:07.919Z,5.52
2023-03-27T17:33:40.044Z,5.45
2023-03-27T17:36:14.588Z,5.33
2023-03-27T17:38:47.902Z,5.03
2023-03-27T17:44:18.206Z,5.13
2023-03-27T17:46:50.310Z,4.98
2023-03-27T17:49:18.223Z,4.95
2023-03-27T17:51:45.627Z,4.73
2023-03-27T17:54:18.872Z,4.83
2023-03-27T17:57:00.392Z,4.74
2023-03-27T17:59:37.144Z,4.67
2023-03-27T18:04:59.670Z,4.41
2023-03-27T18:07:34.878Z,4.22
2023-03-27T18:10:09.522Z,4.23
2023-03-27T18:18:42.124Z,4.34
2023-03-27T18:24:33.653Z,4.24
2023-03-27T18:27:03.190Z,4.04
2023-03-27T18:32:49.441Z,4.13
2023-03-27T18:35:45.787Z,4.09
2023-03-27T18:40:52.651Z,3.72
2023-03-27T18:43:22.363Z,4.03
2023-03-27T18:46:11.121Z,3.66
2023-03-27T18:48:43.234Z,3.77
2023-03-27T18:51:28.564Z,3.65
2023-03-27T18:57:01.219Z,3.90
2023-03-27T19:02:25.633Z,3.95
2023-03-27T19:08:06.898Z,3.57
2023-03-27T19:14:11.577Z,3.68
2023-03-27T19:28:53.566Z,3.36
2023-03-27T19:34:32.715Z,3.67
2023-03-27T20:18:41.043Z,3.69
2023-03-27T20:34:34.475Z,3.52
2023-03-27T20:37:44.129Z,3.53
2023-03-27T20:40:18.732Z,3.52
2023-03-27T20:46:20.874Z,3.48
2023-03-27T20:52:58.222Z,3.49
2023-03-27T22:32:06.174Z,3.06
2023-03-27T22:34:45.179Z,3.23
2023-03-27T22:37:27.039Z,2.96
2023-03-27T22:39:54.032Z,3.00
2023-03-27T22:42:26.256Z,2.96
2023-03-27T22:44:57.355Z,2.54
2023-03-27T22:47:27.794Z,3.03
2023-03-27T22:49:59.647Z,2.93
2023-03-27T22:52:32.789Z,2.28
2023-03-27T22:55:08.332Z,2.80
2023-03-27T22:57:44.559Z,2.34
2023-03-27T23:00:26.915Z,2.09
2023-03-27T23:03:08.928Z,2.36
2023-03-27T23:08:34.861Z,2.69
2023-03-27T23:11:27.719Z,2.70
2023-03-27T23:14:01.125Z,2.16
2023-03-27T23:16:44.975Z,2.15
2023-03-27T23:19:18.327Z,2.14
2023-03-27T23:21:47.560Z,2.11
2023-03-27T23:24:16.615Z,2.36
2023-03-27T23:26:51.446Z,2.36
2023-03-27T23:43:44.229Z,2.44
2023-03-27T23:46:49.844Z,2.42
2023-03-27T23:55:09.921Z,1.81
2023-03-27T23:58:01.538Z,2.40
